Time;durP1;ratioP1;P1;durP2;ratioP2;P2;SDS_P1;SDS_P2;PMS_P1;PMS_P2;Temp;Humidity;BMP_temperature;BMP_pressure;BME280_temperature;BME280_humidity;BME280_pressure;Samples;Min_cycle;Max_cycle;Signal;HPM_P1;HPM_P2
2022/03/27 00:00:18;;;;;;;;;0.00;0.00;19.50;99.90;;;;;;5077149;28;8966;-43
2022/03/27 00:02:48;;;;;;;;;0.00;0.00;19.40;99.90;;;;;;5074360;28;8838;-44
2022/03/27 00:05:19;;;;;;;;;0.00;0.00;19.40;99.90;;;;;;5076698;28;8947;-46
2022/03/27 00:07:49;;;;;;;;;0.00;0.00;19.40;99.90;;;;;;5075655;28;8981;-45
2022/03/27 00:10:19;;;;;;;;;0.00;0.00;19.40;99.90;;;;;;5074518;28;8970;-43
2022/03/27 00:12:49;;;;;;;;;0.00;0.00;19.40;99.90;;;;;;5084132;28;8823;-45
2022/03/27 00:15:19;;;;;;;;;0.00;0.00;19.40;99.90;;;;;;5072693;28;8851;-44
2022/03/27 00:17:51;;;;;;;;;0.00;0.00;19.40;99.90;;;;;;5074514;28;8890;-45
2022/03/27 00:20:23;;;;;;;;;0.00;0.00;19.40;99.90;;;;;;5083386;28;9014;-43
2022/03/27 00:22:54;;;;;;;;;0.00;0.00;19.30;99.90;;;;;;5071397;28;9092;-45
2022/03/27 00:25:24;;;;;;;;;0.00;0.00;19.30;99.90;;;;;;5079805;28;8997;-44
2022/03/27 00:27:56;;;;;;;;;0.00;0.00;19.30;99.90;;;;;;5080572;28;9111;-45
2022/03/27 00:30:26;;;;;;;;;0.00;0.00;19.30;99.90;;;;;;5086219;28;9092;-43
2022/03/27 00:32:57;;;;;;;;;0.00;0.00;19.30;99.90;;;;;;5070733;28;8939;-47
2022/03/27 00:35:28;;;;;;;;;0.75;0.00;19.20;99.90;;;;;;5075892;28;8952;-44
2022/03/27 00:37:59;;;;;;;;;0.00;0.00;19.10;99.90;;;;;;5080364;28;8957;-46
2022/03/27 00:40:30;;;;;;;;;0.00;0.00;19.10;99.90;;;;;;5083189;28;9179;-43
2022/03/27 00:43:00;;;;;;;;;0.00;0.00;19.10;99.90;;;;;;5074630;28;9292;-44
2022/03/27 00:45:32;;;;;;;;;1.33;0.00;19.10;99.90;;;;;;5067456;28;9345;-46
2022/03/27 00:48:04;;;;;;;;;0.00;0.00;19.10;99.90;;;;;;5076448;28;9224;-45
2022/03/27 00:50:34;;;;;;;;;0.00;0.00;19.10;99.90;;;;;;5080110;28;9254;-45
2022/03/27 00:53:08;;;;;;;;;0.00;0.00;19.00;99.90;;;;;;5070925;28;9267;-45
2022/03/27 00:55:39;;;;;;;;;0.00;0.00;18.90;99.90;;;;;;5075704;28;9318;-47
2022/03/27 00:58:14;;;;;;;;;0.00;0.00;19.00;99.90;;;;;;5077367;28;9256;-47
2022/03/27 01:00:47;;;;;;;;;0.00;0.00;18.90;99.90;;;;;;5072062;28;9183;-45
2022/03/27 01:03:21;;;;;;;;;0.00;0.00;18.80;99.90;;;;;;5076371;28;9244;-47
2022/03/27 01:05:51;;;;;;;;;0.00;0.00;18.80;99.90;;;;;;5086992;28;9453;-44
2022/03/27 01:11:16;;;;;;;;;0.00;0.00;18.80;99.90;;;;;;5083797;28;9995;-45
2022/03/27 01:13:57;;;;;;;;;0.00;0.00;18.70;99.90;;;;;;5073988;28;9216;-46
2022/03/27 01:16:39;;;;;;;;;0.00;0.00;18.70;99.90;;;;;;5080589;28;9236;-46
2022/03/27 01:19:11;;;;;;;;;0.00;0.00;18.70;99.90;;;;;;5079467;28;10267;-47
2022/03/27 01:21:44;;;;;;;;;0.00;0.00;18.70;99.90;;;;;;5087122;28;9543;-46
2022/03/27 01:24:18;;;;;;;;;0.00;0.00;18.60;99.90;;;;;;5073494;28;10522;-43
2022/03/27 01:26:50;;;;;;;;;0.00;0.00;18.50;99.90;;;;;;5081426;28;10155;-44
2022/03/27 01:29:21;;;;;;;;;0.00;0.00;18.40;99.90;;;;;;5066741;28;10434;-43
2022/03/27 01:31:53;;;;;;;;;0.50;0.50;18.50;99.90;;;;;;5084214;28;10259;-45
2022/03/27 01:34:23;;;;;;;;;2.25;2.25;18.50;99.90;;;;;;5072961;28;9969;-44
2022/03/27 01:36:58;;;;;;;;;3.00;2.75;18.50;99.90;;;;;;5077352;28;10233;-45
2022/03/27 01:39:28;;;;;;;;;2.50;2.50;18.40;99.90;;;;;;5068170;28;10949;-44
2022/03/27 01:42:00;;;;;;;;;8.00;8.00;18.40;99.90;;;;;;5088102;28;10159;-44
2022/03/27 01:44:31;;;;;;;;;3.75;3.75;18.20;99.90;;;;;;5080405;28;10640;-48
2022/03/27 01:47:01;;;;;;;;;1.25;1.25;18.20;99.90;;;;;;5078016;28;11076;-48
2022/03/27 01:49:32;;;;;;;;;2.50;2.50;18.20;99.90;;;;;;5083076;28;10681;-45
2022/03/27 01:52:04;;;;;;;;;3.50;3.50;18.20;99.90;;;;;;5085070;28;10456;-43
2022/03/27 01:54:34;;;;;;;;;5.25;5.25;18.20;99.90;;;;;;5070883;28;10160;-45
2022/03/27 01:57:05;;;;;;;;;6.00;5.00;18.10;99.90;;;;;;5086654;28;10186;-44
2022/03/27 01:59:35;;;;;;;;;5.00;5.00;18.10;99.90;;;;;;5074824;28;10262;-43
2022/03/27 02:02:06;;;;;;;;;6.00;6.00;18.10;99.90;;;;;;5083761;28;10184;-42
2022/03/27 02:04:38;;;;;;;;;5.50;5.50;18.10;99.90;;;;;;5084564;28;10258;-45
2022/03/27 02:07:09;;;;;;;;;4.25;4.25;18.00;99.90;;;;;;5081973;28;10287;-44
2022/03/27 02:09:40;;;;;;;;;2.00;2.00;18.00;99.90;;;;;;5081433;28;10002;-42
2022/03/27 02:12:12;;;;;;;;;0.50;0.50;18.00;99.90;;;;;;5079153;28;10146;-43
2022/03/27 02:14:43;;;;;;;;;1.25;1.25;17.90;99.90;;;;;;5082005;28;10138;-44
2022/03/27 02:17:15;;;;;;;;;0.25;0.00;17.80;99.90;;;;;;5076908;28;9802;-44
2022/03/27 02:19:45;;;;;;;;;0.00;0.00;17.80;99.90;;;;;;5090371;28;9742;-43
2022/03/27 02:22:16;;;;;;;;;0.00;0.00;17.70;99.90;;;;;;5087990;28;9787;-44
2022/03/27 02:24:48;;;;;;;;;0.00;0.00;17.70;99.90;;;;;;5081450;28;9818;-43
2022/03/27 02:27:20;;;;;;;;;0.00;0.00;17.70;99.90;;;;;;5074255;28;11776;-44
2022/03/27 02:29:50;;;;;;;;;0.00;0.00;17.70;99.90;;;;;;5081842;28;9478;-44
2022/03/27 02:32:22;;;;;;;;;0.00;0.00;17.60;99.90;;;;;;5078625;28;9927;-44
2022/03/27 02:34:53;;;;;;;;;0.00;0.00;17.60;99.90;;;;;;5087051;28;9953;-44
2022/03/27 02:37:24;;;;;;;;;0.00;0.00;17.50;99.90;;;;;;5083109;28;9734;-45
2022/03/27 02:39:55;;;;;;;;;0.00;0.00;17.50;99.90;;;;;;5083404;28;10168;-44
2022/03/27 02:42:25;;;;;;;;;0.00;0.00;17.50;99.90;;;;;;5077033;28;10374;-42
2022/03/27 02:44:57;;;;;;;;;0.00;0.00;17.50;99.90;;;;;;5075746;28;10425;-46
2022/03/27 02:47:29;;;;;;;;;0.25;0.25;17.50;99.90;;;;;;5075249;28;10500;-45
2022/03/27 02:50:01;;;;;;;;;1.25;1.25;17.50;99.90;;;;;;5073202;28;10683;-44
2022/03/27 02:52:33;;;;;;;;;3.75;2.00;17.40;99.90;;;;;;5082362;28;10820;-44
2022/03/27 02:55:05;;;;;;;;;4.50;2.75;17.40;99.90;;;;;;5077879;28;10811;-43
2022/03/27 02:57:35;;;;;;;;;5.50;4.00;17.30;99.90;;;;;;5091667;28;10871;-44
2022/03/27 03:00:07;;;;;;;;;4.75;4.75;17.30;99.90;;;;;;5079624;28;10899;-43
2022/03/27 03:02:38;;;;;;;;;6.00;6.00;17.30;99.90;;;;;;5088115;28;11498;-42
2022/03/27 03:05:09;;;;;;;;;7.75;7.25;17.30;99.90;;;;;;5081527;27;11237;-47
2022/03/27 03:07:42;;;;;;;;;13.25;13.25;17.20;99.90;;;;;;5081092;28;11198;-44
2022/03/27 03:10:14;;;;;;;;;13.00;11.25;17.10;99.90;;;;;;5082229;28;11477;-46
2022/03/27 03:12:45;;;;;;;;;12.75;12.75;17.10;99.90;;;;;;5084282;28;11245;-45
2022/03/27 03:15:17;;;;;;;;;17.50;17.50;17.00;99.90;;;;;;5064134;28;10963;-44
2022/03/27 03:17:48;;;;;;;;;16.00;16.00;17.10;99.90;;;;;;5088822;28;11459;-45
2022/03/27 03:20:19;;;;;;;;;16.50;16.50;17.00;99.90;;;;;;5078124;28;12297;-43
2022/03/27 03:22:48;;;;;;;;;15.00;13.50;17.00;99.90;;;;;;5085988;28;11520;-45
2022/03/27 03:25:19;;;;;;;;;11.25;11.25;17.00;99.90;;;;;;5080847;28;11465;-43
2022/03/27 03:27:51;;;;;;;;;7.00;7.00;17.00;99.90;;;;;;5080532;28;11898;-45
2022/03/27 03:30:22;;;;;;;;;2.25;2.25;16.90;99.90;;;;;;5080874;28;11028;-44
2022/03/27 03:32:52;;;;;;;;;1.00;0.50;16.90;99.90;;;;;;5086416;28;10876;-44
2022/03/27 03:35:22;;;;;;;;;0.00;0.00;16.90;99.90;;;;;;5076444;28;10619;-44
2022/03/27 03:38:10;;;;;;;;;0.00;0.00;16.80;99.90;;;;;;5076165;28;10142;-45
2022/03/27 03:40:41;;;;;;;;;0.00;0.00;16.80;99.90;;;;;;5080529;28;10050;-42
2022/03/27 03:43:13;;;;;;;;;0.00;0.00;16.80;99.90;;;;;;5093078;28;10273;-43
2022/03/27 03:45:46;;;;;;;;;0.00;0.00;16.80;99.90;;;;;;5078774;28;10225;-45
2022/03/27 03:48:16;;;;;;;;;0.00;0.00;16.70;99.90;;;;;;5071420;28;10220;-44
2022/03/27 03:50:47;;;;;;;;;0.00;0.00;16.70;99.90;;;;;;5079773;28;10226;-43
2022/03/27 03:53:18;;;;;;;;;0.00;0.00;16.80;99.90;;;;;;5087032;28;10135;-46
2022/03/27 03:55:49;;;;;;;;;0.00;0.00;16.70;99.90;;;;;;5070624;28;10107;-45
2022/03/27 03:58:19;;;;;;;;;0.00;0.00;16.70;99.90;;;;;;5067425;28;10150;-44
2022/03/27 04:00:50;;;;;;;;;0.00;0.00;16.70;99.90;;;;;;5068823;28;10147;-44
2022/03/27 04:03:21;;;;;;;;;0.00;0.00;16.70;99.90;;;;;;5067801;28;10125;-42
2022/03/27 04:05:52;;;;;;;;;0.00;0.00;16.70;99.90;;;;;;5080228;28;10265;-43
2022/03/27 04:08:22;;;;;;;;;0.00;0.00;16.70;99.90;;;;;;5082599;28;10126;-43
2022/03/27 04:10:52;;;;;;;;;1.00;1.00;16.60;99.90;;;;;;5079161;28;10132;-44
2022/03/27 04:13:24;;;;;;;;;3.00;1.00;16.60;99.90;;;;;;5071163;28;10728;-44
2022/03/27 04:15:54;;;;;;;;;1.00;1.00;16.60;99.90;;;;;;5073292;28;10061;-43
2022/03/27 04:18:26;;;;;;;;;0.00;0.00;16.50;99.90;;;;;;5074589;28;10682;-44
2022/03/27 04:20:56;;;;;;;;;0.00;0.00;16.60;99.90;;;;;;5075310;28;10166;-43
2022/03/27 04:23:28;;;;;;;;;0.50;0.50;16.50;99.90;;;;;;5075182;28;10280;-45
2022/03/27 04:25:59;;;;;;;;;0.00;0.00;16.50;99.90;;;;;;5069423;28;10236;-43
2022/03/27 04:28:29;;;;;;;;;28.25;28.25;16.50;99.90;;;;;;5072185;28;10356;-42
2022/03/27 04:31:01;;;;;;;;;56.50;46.75;16.50;99.90;;;;;;5078138;28;11552;-43
2022/03/27 04:33:32;;;;;;;;;38.00;35.00;16.40;99.90;;;;;;5080340;28;11588;-42
2022/03/27 04:36:04;;;;;;;;;23.50;23.25;16.30;99.90;;;;;;5082706;28;11586;-41
2022/03/27 04:38:35;;;;;;;;;21.75;21.75;16.30;99.90;;;;;;5078175;28;11605;-41
2022/03/27 04:41:06;;;;;;;;;15.00;15.00;16.30;99.90;;;;;;5074101;28;12149;-44
2022/03/27 04:43:36;;;;;;;;;11.00;11.00;16.30;99.90;;;;;;5077117;28;11234;-42
2022/03/27 04:46:07;;;;;;;;;11.50;11.50;16.20;99.90;;;;;;5069503;28;10907;-46
2022/03/27 04:48:38;;;;;;;;;4.00;4.00;16.20;99.90;;;;;;5074528;28;10976;-46
2022/03/27 04:51:10;;;;;;;;;0.00;0.00;16.30;99.90;;;;;;5068132;28;12058;-47
2022/03/27 04:53:42;;;;;;;;;1.00;0.00;16.30;99.90;;;;;;5076853;28;10267;-46
2022/03/27 04:56:13;;;;;;;;;0.00;0.00;16.30;99.90;;;;;;5074941;28;10994;-46
2022/03/27 04:58:43;;;;;;;;;0.00;0.00;16.20;99.90;;;;;;5075882;28;10213;-45
2022/03/27 05:01:15;;;;;;;;;0.00;0.00;16.20;99.90;;;;;;5066265;28;10232;-47
2022/03/27 05:03:47;;;;;;;;;0.00;0.00;16.20;99.90;;;;;;5070986;28;10353;-47
2022/03/27 05:06:19;;;;;;;;;0.00;0.00;16.20;99.90;;;;;;5072724;28;10765;-46
2022/03/27 05:08:50;;;;;;;;;0.00;0.00;16.20;99.90;;;;;;5075839;28;10140;-48
2022/03/27 05:11:21;;;;;;;;;1.00;0.00;16.20;99.90;;;;;;5076416;28;10274;-44
2022/03/27 05:13:51;;;;;;;;;0.00;0.00;16.20;99.90;;;;;;5075282;28;10311;-46
2022/03/27 05:16:23;;;;;;;;;0.00;0.00;16.10;99.90;;;;;;5079500;28;11233;-46
2022/03/27 05:18:55;;;;;;;;;0.00;0.00;16.10;99.90;;;;;;5070628;27;10416;-43
2022/03/27 05:21:26;;;;;;;;;0.00;0.00;16.10;99.90;;;;;;5069002;28;10490;-45
2022/03/27 05:23:56;;;;;;;;;0.00;0.00;16.10;99.90;;;;;;5067735;28;11234;-43
2022/03/27 05:26:34;;;;;;;;;0.00;0.00;16.10;99.90;;;;;;5074052;28;10413;-44
2022/03/27 05:29:06;;;;;;;;;0.00;0.00;16.10;99.90;;;;;;5066115;28;10762;-45
2022/03/27 05:31:37;;;;;;;;;0.00;0.00;16.00;99.90;;;;;;5067520;28;10358;-44
2022/03/27 05:34:07;;;;;;;;;0.00;0.00;16.00;99.90;;;;;;5072026;28;11144;-47
2022/03/27 05:36:37;;;;;;;;;1.00;0.00;16.00;99.90;;;;;;5062515;28;10259;-50
2022/03/27 05:39:08;;;;;;;;;0.00;0.00;16.00;99.90;;;;;;5077855;28;10197;-50
2022/03/27 05:41:38;;;;;;;;;0.00;0.00;15.90;99.90;;;;;;5070940;28;10454;-46
2022/03/27 05:44:09;;;;;;;;;0.00;0.00;15.90;99.90;;;;;;5072735;28;10498;-46
2022/03/27 05:46:40;;;;;;;;;1.00;0.00;15.90;99.90;;;;;;5075140;28;10412;-48
2022/03/27 05:49:11;;;;;;;;;0.00;0.00;15.90;99.90;;;;;;5076549;28;10258;-49
2022/03/27 05:51:43;;;;;;;;;0.00;0.00;15.90;99.90;;;;;;5075179;28;10454;-47
2022/03/27 05:54:15;;;;;;;;;0.00;0.00;15.80;99.90;;;;;;5077020;28;10430;-49
2022/03/27 05:56:46;;;;;;;;;0.00;0.00;15.80;99.90;;;;;;5075157;28;10546;-48
2022/03/27 05:59:16;;;;;;;;;0.00;0.00;15.80;99.90;;;;;;5075457;28;10420;-47
2022/03/27 06:01:47;;;;;;;;;0.00;0.00;15.70;99.90;;;;;;5075572;28;10513;-48
2022/03/27 06:04:17;;;;;;;;;0.00;0.00;15.70;99.90;;;;;;5069226;28;10530;-46
2022/03/27 06:06:48;;;;;;;;;0.00;0.00;15.70;99.90;;;;;;5065880;28;10427;-45
2022/03/27 06:09:22;;;;;;;;;1.00;0.00;15.70;99.90;;;;;;5067984;28;10447;-45
2022/03/27 06:11:53;;;;;;;;;0.00;0.00;15.70;99.90;;;;;;5066582;28;10555;-46
2022/03/27 06:14:24;;;;;;;;;0.00;0.00;15.70;99.90;;;;;;5065700;28;10435;-47
2022/03/27 06:16:54;;;;;;;;;0.00;0.00;15.60;99.90;;;;;;5066197;28;10495;-45
2022/03/27 06:19:26;;;;;;;;;0.00;0.00;15.60;99.90;;;;;;5061802;28;11196;-47
2022/03/27 06:21:59;;;;;;;;;0.00;0.00;15.60;99.90;;;;;;5062436;28;10733;-49
2022/03/27 06:24:30;;;;;;;;;0.50;0.00;15.60;99.90;;;;;;5071312;28;10541;-46
2022/03/27 06:27:00;;;;;;;;;0.00;0.00;15.60;99.90;;;;;;5067927;28;10897;-46
2022/03/27 06:29:31;;;;;;;;;0.00;0.00;15.60;99.90;;;;;;5065006;28;10619;-48
2022/03/27 06:32:01;;;;;;;;;0.00;0.00;15.50;99.90;;;;;;5069241;28;10570;-44
2022/03/27 06:34:31;;;;;;;;;0.00;0.00;15.50;99.90;;;;;;5074911;28;10557;-45
2022/03/27 06:37:03;;;;;;;;;0.00;0.00;15.50;99.90;;;;;;5068427;28;10583;-48
2022/03/27 06:39:33;;;;;;;;;1.00;0.00;15.50;99.90;;;;;;5066717;28;10499;-47
2022/03/27 06:42:04;;;;;;;;;0.00;0.00;15.50;99.90;;;;;;5068904;28;10775;-45
2022/03/27 06:44:35;;;;;;;;;0.00;0.00;15.40;99.90;;;;;;5064380;28;10601;-45
2022/03/27 06:47:07;;;;;;;;;0.00;0.00;15.40;99.90;;;;;;5072784;28;10580;-44
2022/03/27 06:49:37;;;;;;;;;0.00;0.00;15.40;99.90;;;;;;5070689;28;10511;-46
2022/03/27 06:52:08;;;;;;;;;0.50;0.00;15.40;99.90;;;;;;5070750;28;10447;-45
2022/03/27 06:54:44;;;;;;;;;0.00;0.00;15.40;99.90;;;;;;5069246;28;10674;-44
2022/03/27 06:57:15;;;;;;;;;0.00;0.00;15.40;99.90;;;;;;5076137;28;10566;-44
2022/03/27 07:05:27;;;;;;;;;0.00;0.00;15.40;99.90;;;;;;5068105;28;10663;-44
2022/03/27 07:08:05;;;;;;;;;0.00;0.00;15.30;99.90;;;;;;5078097;28;10793;-48
2022/03/27 07:10:36;;;;;;;;;0.00;0.00;15.30;99.90;;;;;;5074455;27;10693;-50
2022/03/27 07:13:09;;;;;;;;;0.00;0.00;15.30;99.90;;;;;;5072889;27;10568;-49
2022/03/27 07:15:40;;;;;;;;;0.00;0.00;15.30;99.90;;;;;;5068582;28;10662;-48
2022/03/27 07:18:12;;;;;;;;;0.00;0.00;15.20;99.90;;;;;;5074915;28;10670;-46
2022/03/27 07:20:45;;;;;;;;;1.00;0.00;15.20;99.90;;;;;;5072600;28;10737;-46
2022/03/27 07:23:17;;;;;;;;;0.00;0.00;15.20;99.90;;;;;;5072295;28;10674;-46
2022/03/27 07:25:52;;;;;;;;;0.00;0.00;15.30;99.90;;;;;;5074206;28;10725;-46
2022/03/27 07:28:25;;;;;;;;;0.00;0.00;15.20;99.90;;;;;;5082112;28;10824;-47
2022/03/27 07:30:55;;;;;;;;;0.00;0.00;15.20;99.90;;;;;;5066161;28;10945;-45
2022/03/27 07:33:28;;;;;;;;;0.00;0.00;15.20;99.90;;;;;;5067973;28;10753;-48
2022/03/27 07:35:59;;;;;;;;;0.00;0.00;15.20;99.90;;;;;;5070049;28;10656;-45
2022/03/27 07:38:31;;;;;;;;;0.00;0.00;15.20;99.90;;;;;;5079525;28;10745;-48
2022/03/27 07:41:02;;;;;;;;;0.00;0.00;15.10;99.90;;;;;;5074518;28;10810;-45
2022/03/27 07:43:34;;;;;;;;;0.75;0.00;15.10;99.90;;;;;;5069827;28;10908;-46
2022/03/27 07:46:05;;;;;;;;;0.00;0.00;15.10;99.90;;;;;;5071465;27;10942;-45
2022/03/27 07:48:35;;;;;;;;;0.00;0.00;15.10;99.90;;;;;;5080543;28;10907;-46
2022/03/27 07:51:06;;;;;;;;;0.00;0.00;15.10;99.90;;;;;;5067698;28;12023;-45
2022/03/27 07:53:37;;;;;;;;;0.00;0.00;15.00;99.90;;;;;;5079332;28;10923;-46
2022/03/27 07:56:08;;;;;;;;;0.00;0.00;15.00;99.90;;;;;;5070651;28;10756;-47
2022/03/27 07:58:39;;;;;;;;;0.00;0.00;15.00;99.90;;;;;;5070677;28;10781;-45
2022/03/27 08:01:12;;;;;;;;;0.00;0.00;15.00;99.90;;;;;;5064281;28;10786;-46
2022/03/27 08:03:43;;;;;;;;;0.00;0.00;14.90;99.90;;;;;;5073914;28;10707;-45
2022/03/27 08:06:13;;;;;;;;;0.75;0.00;14.90;99.90;;;;;;5076381;28;10786;-48
2022/03/27 08:08:44;;;;;;;;;0.00;0.00;14.90;99.90;;;;;;5063126;28;10875;-45
2022/03/27 08:11:14;;;;;;;;;0.00;0.00;15.00;99.90;;;;;;5068309;28;11728;-45
2022/03/27 08:13:46;;;;;;;;;0.00;0.00;15.00;99.90;;;;;;5063221;28;11723;-46
2022/03/27 08:16:17;;;;;;;;;1.00;0.00;14.90;99.90;;;;;;5082120;28;10733;-44
2022/03/27 08:18:48;;;;;;;;;0.00;0.00;14.90;99.90;;;;;;5069050;28;10819;-48
2022/03/27 08:21:19;;;;;;;;;0.00;0.00;14.90;99.90;;;;;;5074420;28;10815;-45
2022/03/27 08:23:49;;;;;;;;;0.00;0.00;14.90;99.90;;;;;;5063419;28;10654;-46
2022/03/27 08:29:10;;;;;;;;;0.00;0.00;14.80;99.90;;;;;;5073781;28;11130;-46
2022/03/27 08:31:40;;;;;;;;;0.00;0.00;14.80;99.90;;;;;;5064931;28;10933;-44
2022/03/27 08:34:13;;;;;;;;;0.00;0.00;14.80;99.90;;;;;;5067120;28;10897;-45
2022/03/27 08:36:49;;;;;;;;;0.00;0.00;14.80;99.90;;;;;;5071262;28;10993;-44
2022/03/27 08:39:19;;;;;;;;;0.00;0.00;14.80;99.90;;;;;;5074727;28;10847;-45
2022/03/27 08:41:51;;;;;;;;;0.50;0.50;14.80;99.90;;;;;;5072826;28;10932;-49
2022/03/27 08:44:24;;;;;;;;;0.00;0.00;14.70;99.90;;;;;;5066188;28;10988;-44
2022/03/27 08:46:56;;;;;;;;;0.00;0.00;14.70;99.90;;;;;;5072516;28;10956;-46
2022/03/27 08:49:30;;;;;;;;;0.00;0.00;14.70;99.90;;;;;;5071196;28;12494;-45
2022/03/27 08:52:21;;;;;;;;;0.00;0.00;14.70;99.90;;;;;;5073589;28;11754;-45
2022/03/27 08:55:24;;;;;;;;;0.00;0.00;14.60;99.90;;;;;;5070074;28;10602;-46
2022/03/27 08:58:00;;;;;;;;;0.00;0.00;14.70;99.90;;;;;;5069623;28;10966;-47
2022/03/27 09:00:33;;;;;;;;;0.00;0.00;14.70;99.90;;;;;;5071701;28;10806;-47
2022/03/27 09:03:06;;;;;;;;;0.00;0.00;14.60;99.90;;;;;;5065484;28;11961;-48
2022/03/27 09:05:39;;;;;;;;;0.00;0.00;14.60;99.90;;;;;;5069169;28;10672;-48
2022/03/27 09:08:12;;;;;;;;;0.75;0.75;14.60;99.90;;;;;;5066624;28;11178;-48
2022/03/27 09:10:43;;;;;;;;;0.50;0.00;14.60;99.90;;;;;;5070529;28;11052;-48
2022/03/27 09:13:16;;;;;;;;;1.00;1.00;14.50;99.90;;;;;;5070243;28;10894;-46
2022/03/27 09:16:00;;;;;;;;;0.00;0.00;14.50;99.90;;;;;;5066209;28;11106;-45
2022/03/27 09:18:55;;;;;;;;;0.00;0.00;14.50;99.90;;;;;;5063625;28;11617;-44
2022/03/27 09:21:27;;;;;;;;;0.00;0.00;14.50;99.90;;;;;;5073038;28;11062;-47
2022/03/27 09:23:59;;;;;;;;;0.00;0.00;14.50;99.90;;;;;;5065288;28;11218;-48
2022/03/27 09:26:32;;;;;;;;;1.00;1.00;14.40;99.90;;;;;;5064831;28;11129;-45
2022/03/27 09:29:12;;;;;;;;;0.75;0.75;14.40;99.90;;;;;;5067444;28;11054;-47
2022/03/27 09:31:42;;;;;;;;;0.00;0.00;14.40;99.90;;;;;;5070707;28;10915;-45
2022/03/27 09:34:13;;;;;;;;;0.00;0.00;14.40;99.90;;;;;;5070509;28;11000;-46
2022/03/27 09:36:43;;;;;;;;;0.00;0.00;14.40;99.90;;;;;;5078588;28;11159;-44
2022/03/27 09:39:26;;;;;;;;;0.00;0.00;14.40;99.90;;;;;;5071192;28;11053;-44
2022/03/27 09:42:03;;;;;;;;;0.00;0.00;14.40;99.90;;;;;;5067307;28;11018;-48
2022/03/27 09:44:37;;;;;;;;;0.25;0.25;14.30;99.90;;;;;;5067120;28;10992;-48
2022/03/27 09:47:10;;;;;;;;;0.00;0.00;14.30;99.90;;;;;;5075561;28;11079;-49
2022/03/27 09:49:46;;;;;;;;;0.00;0.00;14.30;99.90;;;;;;5070791;28;11028;-47
2022/03/27 09:52:19;;;;;;;;;1.00;1.00;14.30;99.90;;;;;;5071991;28;11065;-45
2022/03/27 09:55:02;;;;;;;;;0.00;0.00;14.30;99.90;;;;;;5078694;28;10967;-48
2022/03/27 09:57:34;;;;;;;;;1.00;1.00;14.30;99.90;;;;;;5072486;28;11428;-48
2022/03/27 10:00:20;;;;;;;;;0.00;0.00;14.30;99.90;;;;;;5065960;28;12008;-48
2022/03/27 10:02:51;;;;;;;;;0.00;0.00;14.20;99.90;;;;;;5069880;28;11021;-43
2022/03/27 10:05:23;;;;;;;;;1.00;0.00;14.20;99.90;;;;;;5071180;28;11141;-46
2022/03/27 10:07:56;;;;;;;;;0.00;0.00;14.20;99.90;;;;;;5070602;28;11114;-48
2022/03/27 10:10:28;;;;;;;;;0.00;0.00;14.20;99.90;;;;;;5065750;28;11084;-45
2022/03/27 10:12:59;;;;;;;;;0.00;0.00;14.20;99.90;;;;;;5074145;28;11022;-45
2022/03/27 10:15:30;;;;;;;;;0.00;0.00;14.20;99.90;;;;;;5069814;28;13017;-44
2022/03/27 10:18:20;;;;;;;;;0.00;0.00;14.10;99.90;;;;;;5065093;28;11391;-46
2022/03/27 10:20:58;;;;;;;;;0.00;0.00;14.10;99.90;;;;;;5069603;28;11034;-45
2022/03/27 10:23:30;;;;;;;;;0.00;0.00;14.10;99.90;;;;;;5074292;28;11475;-47
2022/03/27 10:26:03;;;;;;;;;0.50;0.50;14.10;99.90;;;;;;5076519;28;11402;-49
2022/03/27 10:28:38;;;;;;;;;0.75;0.75;14.10;99.90;;;;;;5077414;28;11427;-48
2022/03/27 10:31:10;;;;;;;;;0.00;0.00;14.10;99.90;;;;;;5074404;28;10969;-49
2022/03/27 10:33:41;;;;;;;;;0.00;0.00;14.10;99.90;;;;;;5079138;28;11117;-46
2022/03/27 10:36:58;;;;;;;;;0.00;0.00;14.00;99.90;;;;;;5073884;28;11212;-44
2022/03/27 10:39:58;;;;;;;;;0.00;0.00;14.00;99.90;;;;;;5076618;28;11141;-48
2022/03/27 10:42:50;;;;;;;;;0.00;0.00;14.00;99.90;;;;;;5069667;28;11399;-47
2022/03/27 10:45:22;;;;;;;;;0.00;0.00;14.00;99.90;;;;;;5078451;27;11845;-47
2022/03/27 10:48:14;;;;;;;;;0.50;0.25;14.00;99.90;;;;;;5078826;28;11577;-46
2022/03/27 10:50:54;;;;;;;;;0.00;0.00;13.90;99.90;;;;;;5072885;28;12190;-48
2022/03/27 10:53:26;;;;;;;;;0.00;0.00;14.00;99.90;;;;;;5075238;28;11507;-47
2022/03/27 10:55:58;;;;;;;;;0.00;0.00;13.90;99.90;;;;;;5069827;28;11139;-45
2022/03/27 10:58:39;;;;;;;;;0.75;0.75;13.90;99.90;;;;;;5069782;28;11461;-48
2022/03/27 11:01:30;;;;;;;;;0.00;0.00;13.90;99.90;;;;;;5066853;28;12107;-47
2022/03/27 11:04:09;;;;;;;;;0.25;0.25;13.90;99.90;;;;;;5066350;28;11435;-45
2022/03/27 11:06:48;;;;;;;;;0.00;0.00;13.90;99.90;;;;;;5074431;28;11455;-46
2022/03/27 11:09:38;;;;;;;;;1.25;1.25;13.90;99.90;;;;;;5068862;28;11497;-48
2022/03/27 11:12:28;;;;;;;;;0.00;0.00;13.90;99.90;;;;;;5075474;28;11465;-47
2022/03/27 11:15:05;;;;;;;;;0.50;0.50;13.90;99.90;;;;;;5069255;28;11202;-48
2022/03/27 11:17:37;;;;;;;;;1.00;1.00;13.90;99.90;;;;;;5076307;28;11022;-45
2022/03/27 11:20:29;;;;;;;;;1.00;1.00;13.90;99.90;;;;;;5078514;28;11576;-43
2022/03/27 11:23:00;;;;;;;;;0.25;0.25;13.90;99.90;;;;;;5069865;28;11192;-49
2022/03/27 11:25:41;;;;;;;;;0.00;0.00;13.90;99.90;;;;;;5079560;28;11234;-48
2022/03/27 11:28:20;;;;;;;;;1.00;1.00;13.90;99.90;;;;;;5070282;28;11502;-45
2022/03/27 11:30:51;;;;;;;;;0.00;0.00;13.90;99.90;;;;;;5068406;28;11403;-46
2022/03/27 11:33:29;;;;;;;;;1.00;1.00;13.90;99.90;;;;;;5069925;28;11451;-48
2022/03/27 11:36:09;;;;;;;;;0.00;0.00;13.90;99.90;;;;;;5071414;28;12185;-48
2022/03/27 11:39:01;;;;;;;;;0.50;0.25;13.90;99.90;;;;;;5072398;28;11444;-46
2022/03/27 11:41:43;;;;;;;;;0.00;0.00;13.80;99.90;;;;;;5081962;28;11434;-47
2022/03/27 11:47:22;;;;;;;;;1.00;1.00;13.80;99.90;;;;;;5085284;27;11438;-48
2022/03/27 11:49:54;;;;;;;;;0.00;0.00;13.80;99.90;;;;;;5072944;28;12104;-48
2022/03/27 11:52:24;;;;;;;;;1.00;1.00;13.80;99.90;;;;;;5076439;28;11156;-46
2022/03/27 11:55:06;;;;;;;;;2.00;2.00;13.80;99.90;;;;;;5069375;28;11460;-47
2022/03/27 11:57:55;;;;;;;;;1.00;1.00;13.80;99.90;;;;;;5067353;28;11990;-46
2022/03/27 12:00:49;;;;;;;;;1.00;1.00;13.80;99.90;;;;;;5069129;28;11228;-46
2022/03/27 12:03:21;;;;;;;;;0.00;0.00;13.80;99.90;;;;;;5074643;28;11463;-48
2022/03/27 12:05:54;;;;;;;;;2.00;2.00;13.80;99.90;;;;;;5077732;27;11133;-47
2022/03/27 12:08:36;;;;;;;;;1.00;1.00;13.80;99.90;;;;;;5071184;28;11582;-45
2022/03/27 12:11:08;;;;;;;;;1.25;1.25;13.80;99.90;;;;;;5076033;28;11168;-45
2022/03/27 12:13:40;;;;;;;;;1.25;1.25;13.80;99.90;;;;;;5077334;28;11111;-44
2022/03/27 12:16:22;;;;;;;;;1.00;1.00;13.80;99.90;;;;;;5074783;28;11461;-44
2022/03/27 12:18:54;;;;;;;;;0.00;0.00;13.80;99.90;;;;;;5075823;28;11862;-47
2022/03/27 12:21:26;;;;;;;;;2.00;2.00;13.80;99.90;;;;;;5066709;28;12458;-45
2022/03/27 12:24:04;;;;;;;;;2.00;0.00;13.80;99.90;;;;;;5074681;28;11395;-46
2022/03/27 12:29:49;;;;;;;;;0.00;0.00;13.80;99.90;;;;;;5071000;28;11670;-45
2022/03/27 12:32:25;;;;;;;;;0.00;0.00;13.80;99.90;;;;;;5071656;28;10956;-45
2022/03/27 12:35:01;;;;;;;;;0.00;0.00;13.80;99.90;;;;;;5070502;28;11115;-46
2022/03/27 12:37:33;;;;;;;;;0.50;0.00;13.90;99.90;;;;;;5064644;28;11785;-45
2022/03/27 12:40:10;;;;;;;;;0.00;0.00;13.90;99.90;;;;;;5074297;28;11471;-49
2022/03/27 12:42:46;;;;;;;;;0.00;0.00;13.80;99.90;;;;;;5070046;28;11223;-46
2022/03/27 12:45:19;;;;;;;;;0.00;0.00;13.80;99.90;;;;;;5067707;28;11227;-45
2022/03/27 12:48:18;;;;;;;;;1.00;1.00;13.80;99.90;;;;;;5070672;28;11128;-49
2022/03/27 12:50:53;;;;;;;;;1.00;1.00;13.80;99.90;;;;;;5067800;28;11440;-46
2022/03/27 12:53:24;;;;;;;;;0.25;0.25;13.80;99.90;;;;;;5074847;28;11416;-48
2022/03/27 12:56:09;;;;;;;;;0.00;0.00;13.80;99.90;;;;;;5069762;28;12212;-47
2022/03/27 12:58:43;;;;;;;;;0.00;0.00;13.80;99.90;;;;;;5077329;28;11093;-47
2022/03/27 13:01:22;;;;;;;;;0.00;0.00;13.80;99.90;;;;;;5064384;28;11439;-44
2022/03/27 13:04:08;;;;;;;;;0.00;0.00;13.80;99.90;;;;;;5064962;28;11188;-46
2022/03/27 13:06:58;;;;;;;;;0.00;0.00;13.80;99.90;;;;;;5071920;28;11127;-46
2022/03/27 13:09:29;;;;;;;;;0.00;0.00;13.80;99.90;;;;;;5068582;28;11486;-47
2022/03/27 13:11:59;;;;;;;;;0.25;0.25;13.80;99.90;;;;;;5068877;28;11339;-47
2022/03/27 13:14:46;;;;;;;;;0.00;0.00;13.80;99.90;;;;;;5070732;28;11439;-47
2022/03/27 13:17:15;;;;;;;;;0.00;0.00;13.70;99.90;;;;;;5066946;28;11138;-46
2022/03/27 13:19:46;;;;;;;;;0.00;0.00;13.70;99.90;;;;;;5073609;28;11465;-48
2022/03/27 13:22:17;;;;;;;;;0.00;0.00;13.80;99.90;;;;;;5065689;28;11868;-45
2022/03/27 13:24:51;;;;;;;;;0.00;0.00;13.70;99.90;;;;;;5066668;28;11319;-47
2022/03/27 13:27:20;;;;;;;;;0.00;0.00;13.70;99.90;;;;;;5067865;28;11460;-48
2022/03/27 13:29:51;;;;;;;;;0.00;0.00;13.70;99.90;;;;;;5065157;28;11120;-48
2022/03/27 13:32:22;;;;;;;;;0.00;0.00;13.70;99.90;;;;;;5068086;28;11211;-46
2022/03/27 13:34:52;;;;;;;;;0.00;0.00;13.70;99.90;;;;;;5069727;28;11189;-46
2022/03/27 13:37:24;;;;;;;;;0.00;0.00;13.70;99.90;;;;;;5072820;28;11178;-49